sensor_id;sensor_type;location;lat;lon;timestamp;pressure;altitude;pressure_sealevel;temperature;humidity
36524;BME280;66329;46.796;9.824;2023-01-29T00:00:42;84696.52;;;24.57;2.86
36524;BME280;66329;46.796;9.824;2023-01-29T00:03:09;84699.92;;;25.01;2.87
36524;BME280;66329;46.796;9.824;2023-01-29T00:05:37;84700.13;;;24.14;2.87
36524;BME280;66329;46.796;9.824;2023-01-29T00:08:04;84695.90;;;25.03;2.84
36524;BME280;66329;46.796;9.824;2023-01-29T00:10:31;84693.33;;;25.03;2.87
36524;BME280;66329;46.796;9.824;2023-01-29T00:12:58;84692.91;;;24.64;2.85
36524;BME280;66329;46.796;9.824;2023-01-29T00:15:26;84693.10;;;25.04;2.86
36524;BME280;66329;46.796;9.824;2023-01-29T00:17:54;84693.13;;;25.05;2.88
36524;BME280;66329;46.796;9.824;2023-01-29T00:20:22;84695.09;;;24.66;2.87
36524;BME280;66329;46.796;9.824;2023-01-29T00:22:50;84693.71;;;24.64;2.88
36524;BME280;66329;46.796;9.824;2023-01-29T00:25:17;84693.24;;;24.63;2.88
36524;BME280;66329;46.796;9.824;2023-01-29T00:27:44;84692.36;;;24.58;2.88
36524;BME280;66329;46.796;9.824;2023-01-29T00:30:13;84691.87;;;25.04;2.88
36524;BME280;66329;46.796;9.824;2023-01-29T00:32:41;84688.35;;;24.65;2.88
36524;BME280;66329;46.796;9.824;2023-01-29T00:35:09;84686.86;;;24.99;2.90
36524;BME280;66329;46.796;9.824;2023-01-29T00:37:37;84683.78;;;24.97;2.91
36524;BME280;66329;46.796;9.824;2023-01-29T00:40:05;84680.87;;;24.98;2.90
36524;BME280;66329;46.796;9.824;2023-01-29T00:42:33;84681.76;;;25.06;2.90
36524;BME280;66329;46.796;9.824;2023-01-29T00:45:01;84680.55;;;24.62;2.90
36524;BME280;66329;46.796;9.824;2023-01-29T00:47:29;84678.11;;;25.01;2.89
36524;BME280;66329;46.796;9.824;2023-01-29T00:49:56;84674.85;;;25.35;2.92
36524;BME280;66329;46.796;9.824;2023-01-29T00:52:24;84673.46;;;24.57;2.90
36524;BME280;66329;46.796;9.824;2023-01-29T00:54:52;84668.50;;;24.54;2.90
36524;BME280;66329;46.796;9.824;2023-01-29T00:57:20;84663.02;;;24.94;2.92
36524;BME280;66329;46.796;9.824;2023-01-29T00:59:48;84662.09;;;24.94;2.91
36524;BME280;66329;46.796;9.824;2023-01-29T01:02:17;84657.50;;;24.99;2.90
36524;BME280;66329;46.796;9.824;2023-01-29T01:04:44;84654.07;;;24.95;2.94
36524;BME280;66329;46.796;9.824;2023-01-29T01:07:11;84657.21;;;24.07;3.01
36524;BME280;66329;46.796;9.824;2023-01-29T01:09:39;84658.11;;;24.96;3.04
36524;BME280;66329;46.796;9.824;2023-01-29T01:12:12;84656.81;;;24.94;3.05
36524;BME280;66329;46.796;9.824;2023-01-29T01:14:42;84656.56;;;24.95;3.08
36524;BME280;66329;46.796;9.824;2023-01-29T01:17:10;84656.25;;;24.50;3.09
36524;BME280;66329;46.796;9.824;2023-01-29T01:19:43;84655.69;;;24.97;3.07
36524;BME280;66329;46.796;9.824;2023-01-29T01:22:10;84657.49;;;25.00;3.02
36524;BME280;66329;46.796;9.824;2023-01-29T01:24:38;84659.61;;;24.94;3.02
36524;BME280;66329;46.796;9.824;2023-01-29T01:27:06;84663.80;;;24.94;3.00
36524;BME280;66329;46.796;9.824;2023-01-29T01:29:34;84665.46;;;24.53;3.04
36524;BME280;66329;46.796;9.824;2023-01-29T01:32:02;84667.17;;;24.87;3.08
36524;BME280;66329;46.796;9.824;2023-01-29T01:34:31;84663.58;;;24.90;3.04
36524;BME280;66329;46.796;9.824;2023-01-29T01:36:59;84665.22;;;24.50;3.03
36524;BME280;66329;46.796;9.824;2023-01-29T01:39:27;84666.58;;;24.88;3.03
36524;BME280;66329;46.796;9.824;2023-01-29T01:41:55;84668.76;;;24.95;2.96
36524;BME280;66329;46.796;9.824;2023-01-29T01:45:07;84674.05;;;24.99;3.06
36524;BME280;66329;46.796;9.824;2023-01-29T01:47:44;84674.27;;;24.43;3.12
36524;BME280;66329;46.796;9.824;2023-01-29T01:50:16;84673.33;;;24.92;3.11
36524;BME280;66329;46.796;9.824;2023-01-29T01:52:48;84674.90;;;24.50;3.09
36524;BME280;66329;46.796;9.824;2023-01-29T01:55:22;84678.61;;;24.48;3.07
36524;BME280;66329;46.796;9.824;2023-01-29T01:57:54;84682.27;;;24.49;3.06
36524;BME280;66329;46.796;9.824;2023-01-29T02:00:25;84685.99;;;24.93;3.03
36524;BME280;66329;46.796;9.824;2023-01-29T02:02:54;84685.61;;;24.51;3.09
36524;BME280;66329;46.796;9.824;2023-01-29T02:05:23;84693.27;;;24.96;3.12
36524;BME280;66329;46.796;9.824;2023-01-29T02:07:51;84697.50;;;24.97;3.09
36524;BME280;66329;46.796;9.824;2023-01-29T02:10:19;84700.41;;;24.94;3.08
36524;BME280;66329;46.796;9.824;2023-01-29T02:12:48;84702.07;;;24.51;3.09
36524;BME280;66329;46.796;9.824;2023-01-29T02:15:17;84698.04;;;24.93;3.05
36524;BME280;66329;46.796;9.824;2023-01-29T02:17:45;84695.79;;;24.02;3.04
36524;BME280;66329;46.796;9.824;2023-01-29T02:20:18;84694.03;;;24.96;3.08
36524;BME280;66329;46.796;9.824;2023-01-29T02:23:07;84693.79;;;24.97;3.10
36524;BME280;66329;46.796;9.824;2023-01-29T02:25:56;84694.55;;;24.88;3.10
36524;BME280;66329;46.796;9.824;2023-01-29T02:28:31;84697.11;;;23.93;3.09
36524;BME280;66329;46.796;9.824;2023-01-29T02:31:07;84693.36;;;24.90;3.04
36524;BME280;66329;46.796;9.824;2023-01-29T02:33:47;84689.01;;;24.94;3.03
36524;BME280;66329;46.796;9.824;2023-01-29T02:36:26;84686.21;;;24.50;3.09
36524;BME280;66329;46.796;9.824;2023-01-29T02:38:59;84686.65;;;24.88;3.13
36524;BME280;66329;46.796;9.824;2023-01-29T02:41:33;84685.05;;;24.91;3.10
36524;BME280;66329;46.796;9.824;2023-01-29T02:44:06;84682.11;;;24.52;3.07
36524;BME280;66329;46.796;9.824;2023-01-29T02:46:47;84680.26;;;24.90;3.04
36524;BME280;66329;46.796;9.824;2023-01-29T02:49:22;84681.35;;;24.92;3.04
36524;BME280;66329;46.796;9.824;2023-01-29T02:51:57;84681.40;;;24.47;3.01
36524;BME280;66329;46.796;9.824;2023-01-29T02:54:32;84687.21;;;24.44;3.11
36524;BME280;66329;46.796;9.824;2023-01-29T02:57:08;84681.49;;;24.92;3.07
36524;BME280;66329;46.796;9.824;2023-01-29T02:59:40;84683.21;;;24.89;3.06
36524;BME280;66329;46.796;9.824;2023-01-29T03:02:12;84684.67;;;24.85;3.00
36524;BME280;66329;46.796;9.824;2023-01-29T03:04:45;84687.09;;;24.88;3.02
36524;BME280;66329;46.796;9.824;2023-01-29T03:07:17;84692.33;;;24.84;3.01
36524;BME280;66329;46.796;9.824;2023-01-29T03:09:48;84698.64;;;24.48;3.04
36524;BME280;66329;46.796;9.824;2023-01-29T03:12:21;84703.16;;;24.89;3.08
36524;BME280;66329;46.796;9.824;2023-01-29T03:14:50;84706.26;;;24.42;3.06
36524;BME280;66329;46.796;9.824;2023-01-29T03:17:19;84705.83;;;24.90;3.01
36524;BME280;66329;46.796;9.824;2023-01-29T03:19:50;84701.15;;;24.88;3.01
36524;BME280;66329;46.796;9.824;2023-01-29T03:22:17;84701.77;;;24.85;2.96
36524;BME280;66329;46.796;9.824;2023-01-29T03:24:48;84703.71;;;25.29;2.97
36524;BME280;66329;46.796;9.824;2023-01-29T03:27:20;84712.09;;;24.46;3.05
36524;BME280;66329;46.796;9.824;2023-01-29T03:29:50;84719.03;;;24.84;3.02
36524;BME280;66329;46.796;9.824;2023-01-29T03:32:20;84721.03;;;24.87;2.99
36524;BME280;66329;46.796;9.824;2023-01-29T03:34:56;84719.50;;;24.47;2.97
36524;BME280;66329;46.796;9.824;2023-01-29T03:37:28;84722.74;;;24.92;2.97
36524;BME280;66329;46.796;9.824;2023-01-29T03:39:56;84730.37;;;24.88;2.95
36524;BME280;66329;46.796;9.824;2023-01-29T03:42:27;84735.23;;;24.49;2.93
36524;BME280;66329;46.796;9.824;2023-01-29T03:45:01;84736.94;;;24.88;2.92
36524;BME280;66329;46.796;9.824;2023-01-29T03:47:40;84736.79;;;24.85;2.92
36524;BME280;66329;46.796;9.824;2023-01-29T03:50:14;84737.73;;;24.85;2.94
36524;BME280;66329;46.796;9.824;2023-01-29T03:52:49;84737.43;;;24.85;2.93
36524;BME280;66329;46.796;9.824;2023-01-29T03:55:23;84735.95;;;24.39;2.92
36524;BME280;66329;46.796;9.824;2023-01-29T03:58:02;84725.15;;;24.79;2.91
36524;BME280;66329;46.796;9.824;2023-01-29T04:00:37;84729.00;;;24.39;3.00
36524;BME280;66329;46.796;9.824;2023-01-29T04:03:11;84727.83;;;24.39;2.93
36524;BME280;66329;46.796;9.824;2023-01-29T04:05:42;84721.96;;;24.82;2.88
36524;BME280;66329;46.796;9.824;2023-01-29T04:08:15;84720.63;;;24.84;2.91
36524;BME280;66329;46.796;9.824;2023-01-29T04:10:44;84718.16;;;24.37;2.88
36524;BME280;66329;46.796;9.824;2023-01-29T04:13:15;84716.97;;;24.79;2.85
36524;BME280;66329;46.796;9.824;2023-01-29T04:15:46;84720.46;;;24.87;2.96
36524;BME280;66329;46.796;9.824;2023-01-29T04:18:16;84720.67;;;24.87;2.93
36524;BME280;66329;46.796;9.824;2023-01-29T04:20:43;84714.56;;;24.90;2.87
36524;BME280;66329;46.796;9.824;2023-01-29T04:23:20;84706.95;;;24.84;2.87
36524;BME280;66329;46.796;9.824;2023-01-29T04:25:54;84703.69;;;24.40;2.85
36524;BME280;66329;46.796;9.824;2023-01-29T04:28:48;84697.42;;;24.83;2.85
36524;BME280;66329;46.796;9.824;2023-01-29T04:31:20;84695.87;;;25.17;2.83
36524;BME280;66329;46.796;9.824;2023-01-29T04:34:02;84694.81;;;24.78;2.83
36524;BME280;66329;46.796;9.824;2023-01-29T04:36:37;84695.30;;;24.30;2.84
36524;BME280;66329;46.796;9.824;2023-01-29T04:39:14;84694.65;;;24.34;2.86
36524;BME280;66329;46.796;9.824;2023-01-29T04:41:49;84692.05;;;24.75;2.83
36524;BME280;66329;46.796;9.824;2023-01-29T04:44:22;84692.04;;;24.77;2.81
36524;BME280;66329;46.796;9.824;2023-01-29T04:47:05;84690.79;;;24.80;2.78
36524;BME280;66329;46.796;9.824;2023-01-29T04:49:39;84688.49;;;24.39;2.80
36524;BME280;66329;46.796;9.824;2023-01-29T04:52:16;84683.15;;;24.82;2.76
36524;BME280;66329;46.796;9.824;2023-01-29T04:54:53;84678.59;;;24.74;2.78
36524;BME280;66329;46.796;9.824;2023-01-29T04:57:27;84669.58;;;24.81;2.75
36524;BME280;66329;46.796;9.824;2023-01-29T05:00:03;84668.21;;;24.79;2.75
36524;BME280;66329;46.796;9.824;2023-01-29T05:02:36;84666.91;;;24.39;2.74
36524;BME280;66329;46.796;9.824;2023-01-29T05:05:05;84665.50;;;24.82;2.75
36524;BME280;66329;46.796;9.824;2023-01-29T05:07:35;84668.23;;;24.79;2.73
36524;BME280;66329;46.796;9.824;2023-01-29T05:10:04;84671.46;;;23.87;2.73
36524;BME280;66329;46.796;9.824;2023-01-29T05:12:33;84674.82;;;23.87;2.75
36524;BME280;66329;46.796;9.824;2023-01-29T05:15:08;84676.56;;;24.77;2.73
36524;BME280;66329;46.796;9.824;2023-01-29T05:17:37;84682.33;;;24.74;2.71
36524;BME280;66329;46.796;9.824;2023-01-29T05:20:05;84686.96;;;24.72;2.71
36524;BME280;66329;46.796;9.824;2023-01-29T05:22:36;84687.05;;;24.76;2.73
36524;BME280;66329;46.796;9.824;2023-01-29T05:25:21;84689.07;;;24.74;2.83
36524;BME280;66329;46.796;9.824;2023-01-29T05:27:50;84694.28;;;24.72;2.78
36524;BME280;66329;46.796;9.824;2023-01-29T05:30:17;84697.32;;;24.73;2.75
36524;BME280;66329;46.796;9.824;2023-01-29T05:32:44;84700.24;;;25.67;2.72
36524;BME280;66329;46.796;9.824;2023-01-29T05:35:12;84704.69;;;25.17;2.73
36524;BME280;66329;46.796;9.824;2023-01-29T05:37:39;84709.84;;;24.35;2.67
36524;BME280;66329;46.796;9.824;2023-01-29T05:40:07;84713.91;;;24.86;2.68
36524;BME280;66329;46.796;9.824;2023-01-29T05:42:35;84718.39;;;24.83;2.69
36524;BME280;66329;46.796;9.824;2023-01-29T05:45:02;84720.61;;;24.79;2.70
36524;BME280;66329;46.796;9.824;2023-01-29T05:47:30;84719.80;;;24.78;2.71
36524;BME280;66329;46.796;9.824;2023-01-29T05:49:57;84719.29;;;24.88;2.70
36524;BME280;66329;46.796;9.824;2023-01-29T05:52:24;84721.44;;;24.48;2.67
36524;BME280;66329;46.796;9.824;2023-01-29T05:54:52;84723.17;;;24.86;2.63
36524;BME280;66329;46.796;9.824;2023-01-29T05:57:19;84723.80;;;24.77;2.66
36524;BME280;66329;46.796;9.824;2023-01-29T05:59:46;84722.03;;;24.80;2.69
36524;BME280;66329;46.796;9.824;2023-01-29T06:02:14;84726.46;;;24.41;2.66
36524;BME280;66329;46.796;9.824;2023-01-29T06:04:41;84732.31;;;24.81;2.64
36524;BME280;66329;46.796;9.824;2023-01-29T06:07:08;84732.10;;;24.82;2.63
36524;BME280;66329;46.796;9.824;2023-01-29T06:09:35;84727.56;;;24.82;2.63
36524;BME280;66329;46.796;9.824;2023-01-29T06:12:03;84723.92;;;24.86;2.61
36524;BME280;66329;46.796;9.824;2023-01-29T06:14:31;84726.01;;;24.80;2.63
36524;BME280;66329;46.796;9.824;2023-01-29T06:16:58;84724.95;;;24.78;2.64
36524;BME280;66329;46.796;9.824;2023-01-29T06:19:25;84722.39;;;24.79;2.59
36524;BME280;66329;46.796;9.824;2023-01-29T06:21:52;84722.19;;;24.36;2.59
36524;BME280;66329;46.796;9.824;2023-01-29T06:24:20;84718.25;;;24.79;2.59
36524;BME280;66329;46.796;9.824;2023-01-29T06:26:47;84717.96;;;24.68;2.63
36524;BME280;66329;46.796;9.824;2023-01-29T06:29:14;84723.27;;;24.68;2.63
36524;BME280;66329;46.796;9.824;2023-01-29T06:31:42;84719.86;;;24.78;2.58
36524;BME280;66329;46.796;9.824;2023-01-29T06:34:13;84720.07;;;24.77;2.55
36524;BME280;66329;46.796;9.824;2023-01-29T06:36:40;84718.35;;;24.46;2.56
36524;BME280;66329;46.796;9.824;2023-01-29T06:39:13;84718.22;;;24.84;2.58
36524;BME280;66329;46.796;9.824;2023-01-29T06:41:40;84719.89;;;24.82;2.58
36524;BME280;66329;46.796;9.824;2023-01-29T06:44:08;84718.16;;;24.77;2.57
36524;BME280;66329;46.796;9.824;2023-01-29T06:46:35;84721.45;;;24.77;2.58
36524;BME280;66329;46.796;9.824;2023-01-29T06:49:07;84725.45;;;24.37;2.57
36524;BME280;66329;46.796;9.824;2023-01-29T06:51:35;84725.66;;;24.74;2.57
36524;BME280;66329;46.796;9.824;2023-01-29T06:54:02;84726.64;;;24.74;2.60
36524;BME280;66329;46.796;9.824;2023-01-29T06:56:30;84727.16;;;24.75;2.57
36524;BME280;66329;46.796;9.824;2023-01-29T06:58:58;84730.19;;;24.76;2.54
36524;BME280;66329;46.796;9.824;2023-01-29T07:01:26;84734.39;;;24.38;2.56
36524;BME280;66329;46.796;9.824;2023-01-29T07:03:53;84741.75;;;24.77;2.54
36524;BME280;66329;46.796;9.824;2023-01-29T07:06:20;84749.05;;;24.32;2.56
36524;BME280;66329;46.796;9.824;2023-01-29T07:08:47;84752.20;;;24.77;2.55
36524;BME280;66329;46.796;9.824;2023-01-29T07:11:14;84757.50;;;24.73;2.58
36524;BME280;66329;46.796;9.824;2023-01-29T07:13:42;84764.25;;;24.72;2.59
36524;BME280;66329;46.796;9.824;2023-01-29T07:16:09;84760.58;;;24.31;2.57
36524;BME280;66329;46.796;9.824;2023-01-29T07:18:36;84761.41;;;24.77;2.56
36524;BME280;66329;46.796;9.824;2023-01-29T07:21:04;84762.30;;;24.77;2.54
36524;BME280;66329;46.796;9.824;2023-01-29T07:23:42;84772.42;;;24.80;2.58
36524;BME280;66329;46.796;9.824;2023-01-29T07:26:10;84777.31;;;24.78;2.53
36524;BME280;66329;46.796;9.824;2023-01-29T07:28:38;84781.92;;;24.38;2.57
36524;BME280;66329;46.796;9.824;2023-01-29T07:31:06;84781.39;;;24.36;2.58
36524;BME280;66329;46.796;9.824;2023-01-29T07:33:34;84785.00;;;24.79;2.56
36524;BME280;66329;46.796;9.824;2023-01-29T07:36:05;84790.04;;;24.78;2.55
36524;BME280;66329;46.796;9.824;2023-01-29T07:38:33;84789.50;;;24.75;2.54
36524;BME280;66329;46.796;9.824;2023-01-29T07:41:00;84789.60;;;24.74;2.58
36524;BME280;66329;46.796;9.824;2023-01-29T07:43:27;84793.75;;;24.67;2.60
36524;BME280;66329;46.796;9.824;2023-01-29T07:45:54;84790.91;;;24.68;2.60
36524;BME280;66329;46.796;9.824;2023-01-29T07:48:21;84792.33;;;24.66;2.62
36524;BME280;66329;46.796;9.824;2023-01-29T07:50:53;84792.74;;;24.66;2.59
36524;BME280;66329;46.796;9.824;2023-01-29T07:53:21;84797.94;;;24.63;2.60
36524;BME280;66329;46.796;9.824;2023-01-29T07:55:48;84799.52;;;24.63;2.59
36524;BME280;66329;46.796;9.824;2023-01-29T07:58:15;84800.91;;;24.65;2.59
36524;BME280;66329;46.796;9.824;2023-01-29T08:00:43;84803.33;;;24.66;2.58
36524;BME280;66329;46.796;9.824;2023-01-29T08:03:12;84804.70;;;24.63;2.60
36524;BME280;66329;46.796;9.824;2023-01-29T08:05:40;84799.61;;;24.65;2.60
36524;BME280;66329;46.796;9.824;2023-01-29T08:08:08;84801.54;;;24.65;2.60
36524;BME280;66329;46.796;9.824;2023-01-29T08:10:38;84802.10;;;24.65;2.61
36524;BME280;66329;46.796;9.824;2023-01-29T08:13:06;84801.14;;;24.68;2.62
36524;BME280;66329;46.796;9.824;2023-01-29T08:15:34;84799.86;;;25.60;2.61
36524;BME280;66329;46.796;9.824;2023-01-29T08:18:01;84801.50;;;25.06;2.60
36524;BME280;66329;46.796;9.824;2023-01-29T08:20:29;84802.02;;;24.66;2.59
36524;BME280;66329;46.796;9.824;2023-01-29T08:22:59;84801.00;;;24.65;2.60
36524;BME280;66329;46.796;9.824;2023-01-29T08:25:27;84802.92;;;24.72;2.60
36524;BME280;66329;46.796;9.824;2023-01-29T08:27:56;84802.78;;;24.68;2.60
36524;BME280;66329;46.796;9.824;2023-01-29T08:30:23;84798.16;;;24.68;2.60
36524;BME280;66329;46.796;9.824;2023-01-29T08:32:50;84797.16;;;25.07;2.61
36524;BME280;66329;46.796;9.824;2023-01-29T08:35:17;84797.10;;;24.67;2.59
36524;BME280;66329;46.796;9.824;2023-01-29T08:37:52;84796.50;;;24.69;2.60
36524;BME280;66329;46.796;9.824;2023-01-29T08:40:20;84792.92;;;24.74;2.58
36524;BME280;66329;46.796;9.824;2023-01-29T08:42:48;84792.22;;;24.73;2.60
36524;BME280;66329;46.796;9.824;2023-01-29T08:45:15;84789.18;;;24.70;2.59
36524;BME280;66329;46.796;9.824;2023-01-29T08:47:45;84787.15;;;25.68;2.57
36524;BME280;66329;46.796;9.824;2023-01-29T08:50:12;84788.80;;;24.34;2.62
36524;BME280;66329;46.796;9.824;2023-01-29T08:52:39;84794.44;;;24.76;2.57
36524;BME280;66329;46.796;9.824;2023-01-29T08:55:07;84796.76;;;24.77;2.56
36524;BME280;66329;46.796;9.824;2023-01-29T08:57:34;84796.13;;;24.79;2.57
36524;BME280;66329;46.796;9.824;2023-01-29T09:00:01;84794.51;;;24.79;2.58
36524;BME280;66329;46.796;9.824;2023-01-29T09:02:28;84800.78;;;24.73;2.59
36524;BME280;66329;46.796;9.824;2023-01-29T09:04:55;84801.95;;;25.16;2.58
36524;BME280;66329;46.796;9.824;2023-01-29T09:07:22;84806.01;;;24.75;2.59
36524;BME280;66329;46.796;9.824;2023-01-29T09:09:50;84807.01;;;24.79;2.60
36524;BME280;66329;46.796;9.824;2023-01-29T09:12:18;84809.35;;;24.36;2.58
36524;BME280;66329;46.796;9.824;2023-01-29T09:14:45;84812.00;;;24.72;2.61
36524;BME280;66329;46.796;9.824;2023-01-29T09:17:12;84813.18;;;24.74;2.62
36524;BME280;66329;46.796;9.824;2023-01-29T09:19:40;84812.67;;;24.74;2.60
36524;BME280;66329;46.796;9.824;2023-01-29T09:22:07;84811.98;;;24.74;2.60
36524;BME280;66329;46.796;9.824;2023-01-29T09:24:34;84809.88;;;24.72;2.60
36524;BME280;66329;46.796;9.824;2023-01-29T09:27:01;84809.76;;;24.74;2.60
36524;BME280;66329;46.796;9.824;2023-01-29T09:29:30;84808.75;;;24.71;2.62
36524;BME280;66329;46.796;9.824;2023-01-29T09:31:58;84808.50;;;24.74;2.63
36524;BME280;66329;46.796;9.824;2023-01-29T09:34:25;84803.47;;;24.30;2.64
36524;BME280;66329;46.796;9.824;2023-01-29T09:36:52;84799.19;;;24.73;2.62
36524;BME280;66329;46.796;9.824;2023-01-29T09:39:20;84798.68;;;24.79;2.62
36524;BME280;66329;46.796;9.824;2023-01-29T09:41:54;84798.50;;;24.74;2.65
36524;BME280;66329;46.796;9.824;2023-01-29T09:44:36;84799.04;;;24.70;2.65
36524;BME280;66329;46.796;9.824;2023-01-29T09:47:12;84795.76;;;24.32;2.66
36524;BME280;66329;46.796;9.824;2023-01-29T09:49:44;84787.87;;;24.74;2.63
36524;BME280;66329;46.796;9.824;2023-01-29T09:52:17;84786.07;;;24.78;2.67
36524;BME280;66329;46.796;9.824;2023-01-29T09:54:52;84783.53;;;24.36;2.67
36524;BME280;66329;46.796;9.824;2023-01-29T09:57:24;84782.68;;;24.36;2.67
36524;BME280;66329;46.796;9.824;2023-01-29T09:59:54;84779.18;;;24.78;2.68
36524;BME280;66329;46.796;9.824;2023-01-29T10:02:39;84776.90;;;24.82;2.68
36524;BME280;66329;46.796;9.824;2023-01-29T10:05:20;84774.40;;;23.83;2.71
36524;BME280;66329;46.796;9.824;2023-01-29T10:08:09;84766.08;;;24.79;2.70
36524;BME280;66329;46.796;9.824;2023-01-29T10:10:47;84760.45;;;24.79;2.68
36524;BME280;66329;46.796;9.824;2023-01-29T10:13:27;84759.83;;;24.42;2.70
36524;BME280;66329;46.796;9.824;2023-01-29T10:16:07;84758.49;;;24.84;2.70
36524;BME280;66329;46.796;9.824;2023-01-29T10:18:53;84753.02;;;24.39;2.71
36524;BME280;66329;46.796;9.824;2023-01-29T10:21:38;84749.71;;;24.80;2.72
36524;BME280;66329;46.796;9.824;2023-01-29T10:24:19;84741.52;;;24.81;2.74
36524;BME280;66329;46.796;9.824;2023-01-29T10:26:48;84736.55;;;24.83;2.75
36524;BME280;66329;46.796;9.824;2023-01-29T10:29:18;84731.49;;;24.97;2.73
36524;BME280;66329;46.796;9.824;2023-01-29T10:31:49;84731.43;;;24.93;2.75
36524;BME280;66329;46.796;9.824;2023-01-29T10:34:24;84729.29;;;23.95;2.76
36524;BME280;66329;46.796;9.824;2023-01-29T10:36:55;84727.39;;;24.56;2.75
36524;BME280;66329;46.796;9.824;2023-01-29T10:39:24;84725.86;;;24.93;2.75
36524;BME280;66329;46.796;9.824;2023-01-29T10:42:01;84719.91;;;24.92;2.77
36524;BME280;66329;46.796;9.824;2023-01-29T10:44:42;84717.92;;;24.49;2.77
36524;BME280;66329;46.796;9.824;2023-01-29T10:47:24;84718.06;;;24.85;2.78
36524;BME280;66329;46.796;9.824;2023-01-29T10:50:15;84714.09;;;24.79;2.80
36524;BME280;66329;46.796;9.824;2023-01-29T10:52:55;84713.99;;;24.79;2.80
36524;BME280;66329;46.796;9.824;2023-01-29T10:55:35;84716.01;;;24.79;2.83
36524;BME280;66329;46.796;9.824;2023-01-29T10:58:18;84717.87;;;24.77;2.84
36524;BME280;66329;46.796;9.824;2023-01-29T11:00:48;84716.50;;;24.74;2.86
36524;BME280;66329;46.796;9.824;2023-01-29T11:03:22;84717.62;;;24.78;2.86
36524;BME280;66329;46.796;9.824;2023-01-29T11:06:00;84715.39;;;24.84;2.86
36524;BME280;66329;46.796;9.824;2023-01-29T11:08:36;84715.81;;;24.87;2.85
36524;BME280;66329;46.796;9.824;2023-01-29T11:11:07;84717.22;;;24.91;2.84
36524;BME280;66329;46.796;9.824;2023-01-29T11:13:39;84717.21;;;24.54;2.84
36524;BME280;66329;46.796;9.824;2023-01-29T11:16:09;84716.73;;;24.52;2.81
36524;BME280;66329;46.796;9.824;2023-01-29T11:19:09;84722.06;;;24.10;2.81
36524;BME280;66329;46.796;9.824;2023-01-29T11:21:51;84724.89;;;24.90;2.84
36524;BME280;66329;46.796;9.824;2023-01-29T11:24:19;84722.19;;;24.92;2.86
36524;BME280;66329;46.796;9.824;2023-01-29T11:26:49;84719.34;;;24.55;2.85
36524;BME280;66329;46.796;9.824;2023-01-29T11:29:49;84719.16;;;24.99;2.85
36524;BME280;66329;46.796;9.824;2023-01-29T11:32:33;84718.36;;;24.94;2.88
36524;BME280;66329;46.796;9.824;2023-01-29T11:35:03;84716.24;;;24.54;2.87
36524;BME280;66329;46.796;9.824;2023-01-29T11:37:34;84712.19;;;25.04;2.85
36524;BME280;66329;46.796;9.824;2023-01-29T11:40:07;84710.14;;;24.61;2.86
36524;BME280;66329;46.796;9.824;2023-01-29T11:42:55;84703.65;;;24.56;2.86
36524;BME280;66329;46.796;9.824;2023-01-29T11:45:37;84699.54;;;25.00;2.86
36524;BME280;66329;46.796;9.824;2023-01-29T11:48:13;84694.83;;;25.03;2.85
36524;BME280;66329;46.796;9.824;2023-01-29T11:50:42;84691.21;;;24.61;2.86
36524;BME280;66329;46.796;9.824;2023-01-29T11:53:34;84686.07;;;24.67;2.85
36524;BME280;66329;46.796;9.824;2023-01-29T11:56:05;84680.23;;;25.05;2.85
36524;BME280;66329;46.796;9.824;2023-01-29T11:58:41;84679.37;;;24.65;2.86
36524;BME280;66329;46.796;9.824;2023-01-29T12:01:09;84678.30;;;25.06;2.87
36524;BME280;66329;46.796;9.824;2023-01-29T12:03:41;84674.20;;;24.67;2.87
36524;BME280;66329;46.796;9.824;2023-01-29T12:06:18;84671.23;;;25.08;2.89
36524;BME280;66329;46.796;9.824;2023-01-29T12:08:54;84665.11;;;25.06;2.89
36524;BME280;66329;46.796;9.824;2023-01-29T12:11:28;84663.71;;;25.07;2.89
36524;BME280;66329;46.796;9.824;2023-01-29T12:13:56;84660.60;;;24.14;2.90
36524;BME280;66329;46.796;9.824;2023-01-29T12:16:27;84658.47;;;25.09;2.88
36524;BME280;66329;46.796;9.824;2023-01-29T12:19:07;84657.56;;;24.62;2.89
36524;BME280;66329;46.796;9.824;2023-01-29T12:21:44;84655.96;;;25.09;2.88
36524;BME280;66329;46.796;9.824;2023-01-29T12:24:23;84654.20;;;24.69;2.90
36524;BME280;66329;46.796;9.824;2023-01-29T12:26:59;84651.27;;;24.70;2.87
36524;BME280;66329;46.796;9.824;2023-01-29T12:29:35;84649.02;;;24.20;2.88
36524;BME280;66329;46.796;9.824;2023-01-29T12:32:13;84649.00;;;25.11;2.90
36524;BME280;66329;46.796;9.824;2023-01-29T12:34:49;84649.27;;;25.09;2.91
36524;BME280;66329;46.796;9.824;2023-01-29T12:37:20;84650.20;;;25.12;2.91
36524;BME280;66329;46.796;9.824;2023-01-29T12:39:50;84652.84;;;25.13;2.92
36524;BME280;66329;46.796;9.824;2023-01-29T12:42:19;84653.31;;;25.56;2.94
36524;BME280;66329;46.796;9.824;2023-01-29T12:44:50;84654.09;;;25.14;2.94
36524;BME280;66329;46.796;9.824;2023-01-29T12:47:24;84657.72;;;25.14;2.95
36524;BME280;66329;46.796;9.824;2023-01-29T12:49:55;84661.86;;;25.15;2.99
36524;BME280;66329;46.796;9.824;2023-01-29T12:52:48;84662.47;;;25.16;2.98
36524;BME280;66329;46.796;9.824;2023-01-29T12:55:20;84662.01;;;24.68;3.04
36524;BME280;66329;46.796;9.824;2023-01-29T12:57:53;84662.66;;;25.16;2.99
36524;BME280;66329;46.796;9.824;2023-01-29T13:00:24;84664.91;;;25.16;3.08
36524;BME280;66329;46.796;9.824;2023-01-29T13:03:02;84663.76;;;24.71;3.10
36524;BME280;66329;46.796;9.824;2023-01-29T13:05:37;84668.00;;;25.10;3.12
36524;BME280;66329;46.796;9.824;2023-01-29T13:08:10;84668.47;;;24.76;3.13
36524;BME280;66329;46.796;9.824;2023-01-29T13:10:43;84670.08;;;24.24;3.14
36524;BME280;66329;46.796;9.824;2023-01-29T13:13:15;84670.38;;;25.20;3.14
36524;BME280;66329;46.796;9.824;2023-01-29T13:15:48;84666.44;;;24.73;3.17
36524;BME280;66329;46.796;9.824;2023-01-29T13:18:29;84663.59;;;24.72;3.17
36524;BME280;66329;46.796;9.824;2023-01-29T13:20:59;84660.80;;;25.18;3.18
36524;BME280;66329;46.796;9.824;2023-01-29T13:23:32;84660.82;;;24.32;3.18
36524;BME280;66329;46.796;9.824;2023-01-29T13:26:02;84661.65;;;25.21;3.20
36524;BME280;66329;46.796;9.824;2023-01-29T13:28:29;84659.97;;;24.82;3.19
36524;BME280;66329;46.796;9.824;2023-01-29T13:31:20;84656.81;;;25.27;3.20
36524;BME280;66329;46.796;9.824;2023-01-29T13:34:07;84652.49;;;24.81;3.21